METAR

Aeronautical MET Report METAR

METAR description (Slovak)

28.05.2018 - 08:00 UTC

METAR LZIB 280800Z 10006KT 070V150 CAVOK 24/18 Q1021 NOSIG=
METAR LZKZ 280800Z 08006KT 050V110 CAVOK 23/15 Q1022 NOSIG=
METAR LZPP 280800Z 14006KT 9999 FEW035 25/16 Q1021=
METAR LZSL 280800Z VRB01KT 9999 FEW046 24/16 Q1022=
METAR LZTT 280800Z 06004KT 030V100 9999 FEW050 21/12 Q1024 NOSIG=
METAR LZZI 280800Z VRB02KT 9999 FEW030 24/15 Q1022=

28.05.2018 - 07:30 UTC

METAR LZIB 280730Z 10005KT 060V140 CAVOK 23/18 Q1021 NOSIG=
METAR LZKZ 280730Z 03007KT 360V060 CAVOK 23/14 Q1022 NOSIG=
METAR LZPP 280730Z VRB02KT CAVOK 25/18 Q1021=
METAR LZSL 280730Z 00000KT 9999 FEW043 22/15 Q1022=
METAR LZTT 280730Z VRB02KT 9999 FEW050 20/13 Q1024 NOSIG=
METAR LZZI 280730Z VRB02KT 9999 FEW026 23/15 Q1022=

28.05.2018 - 08:00 UTC

METAR LZMC 280800Z 13008KT CAVOK 26/16 Q1021=
METAR LZPW 280800Z 06008KT CAVOK 23/12 Q1023=

 

 

skok na menu ↑


skok na začiatok stránky ↑